Time;durP1;ratioP1;P1;durP2;ratioP2;P2;SDS_P1;SDS_P2;PMS_P1;PMS_P2;Temp;Humidity;BMP_temperature;BMP_pressure;BME280_temperature;BME280_humidity;BME280_pressure;Samples;Min_cycle;Max_cycle;Signal;HPM_P1;HPM_P2
2024/03/05 00:01:03;;;;;;;14.48;7.28;;;12.00;99.90;;;;;;5091585;28;20059;-81
2024/03/05 00:03:32;;;;;;;13.32;8.27;;;12.00;99.90;;;;;;5110720;28;20069;-81
2024/03/05 00:06:01;;;;;;;20.95;13.85;;;12.00;99.90;;;;;;5119649;28;20032;-78
2024/03/05 00:08:29;;;;;;;12.30;9.10;;;12.00;99.90;;;;;;5099246;28;20047;-76
2024/03/05 00:11:04;;;;;;;15.25;7.65;;;12.00;99.90;;;;;;5092846;28;20062;-74
2024/03/05 00:13:38;;;;;;;11.13;6.78;;;12.00;99.90;;;;;;5094197;28;20055;-75
2024/03/05 00:16:09;;;;;;;9.95;6.93;;;12.00;99.90;;;;;;5099952;28;20040;-76
2024/03/05 00:18:50;;;;;;;12.20;7.68;;;12.00;99.90;;;;;;5118622;28;20044;-75
2024/03/05 00:21:17;;;;;;;13.85;7.82;;;11.90;99.90;;;;;;5112707;28;20042;-75
2024/03/05 00:23:45;;;;;;;11.73;8.57;;;11.70;99.90;;;;;;5111243;28;20105;-80
2024/03/05 00:26:18;;;;;;;14.07;7.10;;;11.70;99.90;;;;;;5100145;28;20122;-79
2024/03/05 00:28:46;;;;;;;18.98;8.07;;;11.80;99.90;;;;;;5098540;28;20055;-79
2024/03/05 00:31:13;;;;;;;10.73;7.68;;;11.90;99.90;;;;;;5114651;28;20046;-82
2024/03/05 00:33:41;;;;;;;9.30;7.20;;;11.90;99.90;;;;;;5117554;28;20040;-74
2024/03/05 00:36:08;;;;;;;15.07;8.23;;;11.90;99.90;;;;;;5119924;28;20038;-80
2024/03/05 00:38:37;;;;;;;14.07;8.30;;;11.90;99.90;;;;;;5110453;28;20479;-78
2024/03/05 00:41:04;;;;;;;13.50;8.07;;;11.80;99.90;;;;;;5115206;28;20576;-77
2024/03/05 00:43:49;;;;;;;10.25;7.82;;;11.70;99.90;;;;;;5113944;28;20126;-75
2024/03/05 00:46:16;;;;;;;10.98;8.40;;;11.70;99.90;;;;;;5106174;28;20480;-78
2024/03/05 00:48:44;;;;;;;12.32;7.88;;;11.70;99.90;;;;;;5095460;28;20063;-77
2024/03/05 00:51:12;;;;;;;10.10;8.00;;;11.80;99.90;;;;;;5114909;28;20402;-75
2024/03/05 00:53:39;;;;;;;11.98;7.65;;;11.80;99.90;;;;;;5111172;28;20097;-76
2024/03/05 00:56:10;;;;;;;16.75;7.55;;;11.80;99.90;;;;;;5105059;27;20462;-80
2024/03/05 00:59:01;;;;;;;12.93;7.88;;;11.80;99.90;;;;;;5090080;28;20036;-73
2024/03/05 01:01:29;;;;;;;13.73;7.65;;;11.80;99.90;;;;;;5112596;28;20393;-75
2024/03/05 01:03:58;;;;;;;12.63;7.95;;;11.90;99.90;;;;;;5102682;28;20040;-75
2024/03/05 01:06:25;;;;;;;12.10;7.28;;;11.80;99.90;;;;;;5105059;27;20040;-76
2024/03/05 01:08:52;;;;;;;11.48;7.88;;;11.70;99.90;;;;;;5105839;28;20500;-75
2024/03/05 01:11:20;;;;;;;16.35;7.70;;;11.70;99.90;;;;;;5109977;28;20036;-75
2024/03/05 01:13:48;;;;;;;12.60;8.68;;;11.80;99.90;;;;;;5104485;28;20490;-78
2024/03/05 01:16:15;;;;;;;12.00;7.85;;;11.60;99.90;;;;;;5112469;27;20038;-79
2024/03/05 01:18:44;;;;;;;15.15;8.43;;;11.60;99.90;;;;;;5110181;28;20118;-80
2024/03/05 01:21:11;;;;;;;12.45;7.35;;;11.50;99.90;;;;;;5090769;28;20046;-78
2024/03/05 01:23:38;;;;;;;17.05;9.20;;;11.50;99.90;;;;;;5108509;28;20457;-77
2024/03/05 01:26:07;;;;;;;10.93;7.82;;;11.50;99.90;;;;;;5109176;28;20044;-74
2024/03/05 01:28:35;;;;;;;10.20;7.43;;;11.40;99.90;;;;;;5088075;28;20105;-77
2024/03/05 01:31:02;;;;;;;12.70;7.72;;;11.30;99.90;;;;;;5108135;28;20046;-75
2024/03/05 01:33:30;;;;;;;15.02;8.23;;;11.20;99.90;;;;;;5072033;28;20036;-76
2024/03/05 01:35:58;;;;;;;11.30;7.63;;;11.20;99.90;;;;;;5093658;28;20040;-73
2024/03/05 01:38:27;;;;;;;12.77;8.77;;;11.20;99.90;;;;;;5092315;28;20031;-74
2024/03/05 01:40:58;;;;;;;15.50;9.10;;;11.40;99.90;;;;;;5099319;28;20048;-74
2024/03/05 01:43:27;;;;;;;13.00;8.82;;;11.60;99.90;;;;;;5109233;28;20058;-78
2024/03/05 01:45:56;;;;;;;13.38;8.57;;;11.70;99.90;;;;;;5088298;28;20043;-75
2024/03/05 01:48:24;;;;;;;14.98;8.00;;;11.70;99.90;;;;;;5104960;28;20122;-77
2024/03/05 01:50:52;;;;;;;12.80;8.63;;;11.70;99.90;;;;;;5108045;28;20080;-76
2024/03/05 01:53:20;;;;;;;13.45;8.32;;;11.70;99.90;;;;;;5108042;28;20031;-75
2024/03/05 01:55:48;;;;;;;15.02;8.40;;;11.70;99.90;;;;;;5101743;28;20793;-77
2024/03/05 01:58:17;;;;;;;11.70;8.07;;;11.70;99.90;;;;;;5110279;28;20047;-78
2024/03/05 02:00:46;;;;;;;15.80;9.07;;;11.40;99.90;;;;;;5103646;28;20048;-74
2024/03/05 02:03:15;;;;;;;14.93;8.65;;;11.10;99.90;;;;;;5106987;28;20087;-75
2024/03/05 02:05:44;;;;;;;15.93;9.77;;;11.00;99.90;;;;;;5088664;28;20094;-78
2024/03/05 02:08:12;;;;;;;13.27;9.30;;;11.00;99.90;;;;;;5105444;28;20059;-76
2024/03/05 02:10:48;;;;;;;13.32;9.05;;;10.90;99.90;;;;;;5110052;28;20250;-75
2024/03/05 02:13:16;;;;;;;14.80;8.95;;;10.90;99.90;;;;;;5088586;28;20406;-75
2024/03/05 02:15:43;;;;;;;15.38;9.43;;;10.90;99.90;;;;;;5088152;28;20032;-74
2024/03/05 02:18:12;;;;;;;12.27;9.02;;;10.90;99.90;;;;;;5109069;28;20493;-73
2024/03/05 02:20:40;;;;;;;15.98;9.85;;;10.90;99.90;;;;;;5105910;28;20383;-76
2024/03/05 02:23:08;;;;;;;17.05;9.55;;;10.90;99.90;;;;;;5114105;28;20047;-80
2024/03/05 02:25:36;;;;;;;12.85;8.77;;;11.00;99.90;;;;;;5106650;28;20104;-76
2024/03/05 02:28:04;;;;;;;13.90;9.55;;;11.00;99.90;;;;;;5071591;28;20406;-73
2024/03/05 02:30:32;;;;;;;16.25;9.02;;;11.00;99.90;;;;;;5089804;28;20372;-79
2024/03/05 02:33:01;;;;;;;17.27;8.82;;;11.00;99.90;;;;;;5110638;28;20229;-77
2024/03/05 02:35:29;;;;;;;12.35;9.07;;;11.10;99.90;;;;;;5105922;28;20119;-74
2024/03/05 02:37:56;;;;;;;12.20;8.90;;;11.10;99.90;;;;;;5075035;28;20050;-74
2024/03/05 02:40:25;;;;;;;11.65;8.07;;;11.00;99.90;;;;;;5087865;28;20031;-80
2024/03/05 02:42:52;;;;;;;16.73;9.05;;;11.00;99.90;;;;;;5087165;28;20491;-80
2024/03/05 02:45:20;;;;;;;14.60;8.10;;;11.10;99.90;;;;;;5105363;28;20047;-78
2024/03/05 02:47:48;;;;;;;13.90;8.38;;;11.00;99.90;;;;;;5080265;28;20576;-74
2024/03/05 02:50:15;;;;;;;11.57;8.15;;;11.10;99.90;;;;;;5089265;28;20038;-80
2024/03/05 02:52:43;;;;;;;13.07;8.73;;;11.20;99.90;;;;;;5093221;28;20055;-79
2024/03/05 02:55:11;;;;;;;16.17;8.95;;;11.20;99.90;;;;;;5108317;28;20459;-78
2024/03/05 02:57:40;;;;;;;13.40;8.45;;;11.30;99.90;;;;;;5108798;28;20105;-80
2024/03/05 03:00:18;;;;;;;15.50;8.30;;;11.30;99.90;;;;;;5115167;28;20043;-84
2024/03/05 03:02:48;;;;;;;12.25;8.15;;;11.30;99.90;;;;;;5107563;28;20379;-76
2024/03/05 03:05:25;;;;;;;12.65;8.45;;;11.20;99.90;;;;;;5117678;28;20050;-81
2024/03/05 03:07:52;;;;;;;12.13;7.85;;;11.10;99.90;;;;;;5106440;28;20074;-83
2024/03/05 03:10:20;;;;;;;14.70;8.57;;;11.30;99.90;;;;;;5107705;28;20031;-84
2024/03/05 03:12:48;;;;;;;12.15;7.75;;;11.40;99.90;;;;;;5113920;28;20032;-76
2024/03/05 03:15:20;;;;;;;11.68;7.28;;;11.40;99.90;;;;;;5114954;28;20036;-86
2024/03/05 03:17:48;;;;;;;14.82;7.47;;;11.50;99.90;;;;;;5114377;28;20036;-74
2024/03/05 03:20:19;;;;;;;12.55;8.63;;;11.60;99.90;;;;;;5112793;28;20104;-77
2024/03/05 03:22:46;;;;;;;15.02;8.63;;;11.50;99.90;;;;;;5106105;28;20035;-77
2024/03/05 03:25:14;;;;;;;9.98;7.93;;;11.50;99.90;;;;;;5112857;28;20043;-76
2024/03/05 03:27:41;;;;;;;13.68;8.50;;;11.50;99.90;;;;;;5112454;28;20128;-78
2024/03/05 03:30:17;;;;;;;14.60;9.02;;;11.50;99.90;;;;;;5108937;28;20039;-78
2024/03/05 03:32:46;;;;;;;12.25;8.57;;;11.40;99.90;;;;;;5111585;28;20043;-80
2024/03/05 03:35:13;;;;;;;12.65;9.27;;;11.50;99.90;;;;;;5106993;28;20404;-78
2024/03/05 03:37:41;;;;;;;13.80;8.85;;;11.50;99.90;;;;;;5113324;28;20486;-75
2024/03/05 03:40:17;;;;;;;11.70;9.15;;;11.60;99.90;;;;;;5109492;28;20067;-74
2024/03/05 03:42:45;;;;;;;14.43;9.75;;;11.60;99.90;;;;;;5108608;28;20119;-76
2024/03/05 03:45:14;;;;;;;14.43;9.20;;;11.50;99.90;;;;;;5110725;28;20486;-80
2024/03/05 03:47:41;;;;;;;17.35;9.95;;;11.50;99.90;;;;;;5110614;28;20032;-76
2024/03/05 03:50:10;;;;;;;15.07;9.75;;;11.50;99.90;;;;;;5090195;28;20047;-76
2024/03/05 03:52:41;;;;;;;16.40;9.82;;;11.50;99.90;;;;;;5111575;28;20047;-73
2024/03/05 03:55:09;;;;;;;20.63;10.73;;;11.50;99.90;;;;;;5112821;28;20040;-77
2024/03/05 03:57:37;;;;;;;15.68;10.13;;;11.50;99.90;;;;;;5087939;28;20147;-80
2024/03/05 04:00:07;;;;;;;17.80;10.40;;;11.30;99.90;;;;;;5111380;28;20415;-74
2024/03/05 04:02:36;;;;;;;15.48;10.63;;;11.20;99.90;;;;;;5107585;28;20081;-77
2024/03/05 04:05:09;;;;;;;18.10;10.18;;;11.30;99.90;;;;;;5112678;28;20406;-75
2024/03/05 04:07:37;;;;;;;18.23;10.82;;;11.40;99.90;;;;;;5107693;28;20118;-74
2024/03/05 04:10:06;;;;;;;17.50;9.82;;;11.40;99.90;;;;;;5110090;28;20418;-78
2024/03/05 04:12:34;;;;;;;16.60;10.27;;;11.40;99.90;;;;;;5111569;28;20036;-78
2024/03/05 04:15:03;;;;;;;16.88;9.98;;;11.40;99.90;;;;;;5092492;28;20044;-79
2024/03/05 04:17:30;;;;;;;14.55;10.10;;;11.40;99.90;;;;;;5075543;28;20479;-75
2024/03/05 04:19:57;;;;;;;15.50;9.75;;;11.40;99.90;;;;;;5112333;28;20608;-75
2024/03/05 04:22:25;;;;;;;14.02;9.82;;;11.40;99.90;;;;;;5075117;28;20493;-79
2024/03/05 04:24:55;;;;;;;13.02;9.88;;;11.10;99.90;;;;;;5106994;28;20035;-79
2024/03/05 04:27:24;;;;;;;17.23;10.82;;;10.90;99.90;;;;;;5090137;28;20074;-81
2024/03/05 04:29:53;;;;;;;17.65;10.23;;;10.90;99.90;;;;;;5104964;28;20084;-75
2024/03/05 04:32:21;;;;;;;14.68;10.50;;;10.80;99.90;;;;;;5087923;28;20070;-76
2024/03/05 04:34:50;;;;;;;14.80;10.35;;;10.90;99.90;;;;;;5064728;28;20126;-75
2024/03/05 04:37:17;;;;;;;17.92;10.70;;;10.80;99.90;;;;;;5087249;28;20101;-79
2024/03/05 04:39:46;;;;;;;18.80;9.85;;;10.80;99.90;;;;;;5090148;28;20234;-74
2024/03/05 04:42:14;;;;;;;16.23;10.63;;;10.60;99.90;;;;;;5090580;28;20047;-78
2024/03/05 04:44:43;;;;;;;17.10;10.65;;;10.70;99.90;;;;;;5107574;28;20032;-75
2024/03/05 04:47:11;;;;;;;16.15;10.82;;;10.60;99.90;;;;;;5076327;28;20148;-74
2024/03/05 04:49:40;;;;;;;15.40;10.10;;;10.70;99.90;;;;;;5076118;28;20134;-73
2024/03/05 04:52:11;;;;;;;12.35;8.98;;;10.70;99.90;;;;;;5092210;28;20415;-77
2024/03/05 04:54:39;;;;;;;13.52;8.98;;;10.70;99.90;;;;;;5105812;28;20032;-79
2024/03/05 04:57:07;;;;;;;12.27;7.95;;;10.70;99.90;;;;;;5090091;28;20135;-72
2024/03/05 04:59:35;;;;;;;9.93;8.20;;;10.70;99.90;;;;;;5093382;28;20390;-75
2024/03/05 05:02:03;;;;;;;14.63;8.85;;;10.70;99.90;;;;;;5110286;28;20466;-74
2024/03/05 05:04:30;;;;;;;14.75;8.27;;;10.60;99.90;;;;;;5102918;28;20043;-76
2024/03/05 05:06:58;;;;;;;13.20;8.43;;;10.60;99.90;;;;;;5107838;28;20035;-77
2024/03/05 05:09:25;;;;;;;11.30;8.20;;;10.40;99.90;;;;;;5088788;28;20047;-83
2024/03/05 05:11:53;;;;;;;11.18;8.15;;;10.40;99.90;;;;;;5089827;28;20047;-84
2024/03/05 05:14:20;;;;;;;13.60;8.15;;;10.40;99.90;;;;;;5088745;28;20122;-77
2024/03/05 05:16:48;;;;;;;9.40;7.18;;;10.40;99.90;;;;;;5110234;28;20044;-79
2024/03/05 05:19:16;;;;;;;10.45;7.53;;;10.60;99.90;;;;;;5090044;28;20660;-79
2024/03/05 05:21:45;;;;;;;13.75;7.57;;;10.80;99.90;;;;;;5093149;28;20051;-76
2024/03/05 05:24:13;;;;;;;10.45;7.78;;;10.90;99.90;;;;;;5101937;28;20046;-78
2024/03/05 05:26:42;;;;;;;15.55;8.48;;;11.00;99.90;;;;;;5096861;28;20104;-77
2024/03/05 05:29:10;;;;;;;12.15;7.38;;;11.10;99.90;;;;;;5104075;28;20452;-79
2024/03/05 05:31:51;;;;;;;12.63;8.05;;;11.10;99.90;;;;;;5104483;28;20073;-78
2024/03/05 05:34:19;;;;;;;16.27;7.75;;;11.20;99.90;;;;;;5093844;28;20088;-76
2024/03/05 05:36:46;;;;;;;13.57;7.90;;;11.30;99.90;;;;;;5101750;28;20088;-79
2024/03/05 05:39:14;;;;;;;12.48;7.60;;;11.30;99.90;;;;;;5092319;28;20095;-76
2024/03/05 05:41:42;;;;;;;12.63;8.35;;;11.20;99.90;;;;;;5083964;28;20044;-81
2024/03/05 05:44:14;;;;;;;10.52;8.25;;;11.00;99.90;;;;;;5084928;28;20074;-76
2024/03/05 05:46:42;;;;;;;15.70;9.35;;;11.10;99.90;;;;;;5091210;28;20113;-84
2024/03/05 05:49:09;;;;;;;18.92;10.40;;;11.20;99.90;;;;;;5091287;28;20040;-76
2024/03/05 05:51:38;;;;;;;18.25;10.82;;;11.20;99.90;;;;;;5106017;28;20038;-73
2024/03/05 05:54:10;;;;;;;14.68;10.63;;;10.80;99.90;;;;;;5088557;28;20503;-78
2024/03/05 05:56:39;;;;;;;16.33;10.82;;;10.60;99.90;;;;;;5101955;28;20047;-76
2024/03/05 05:59:08;;;;;;;15.77;11.43;;;10.70;99.90;;;;;;5085541;28;20044;-76
2024/03/05 06:01:37;;;;;;;14.23;9.80;;;10.40;99.90;;;;;;5086714;28;20036;-83
2024/03/05 06:04:09;;;;;;;18.10;10.43;;;10.40;99.90;;;;;;5114610;28;20368;-81
2024/03/05 06:06:36;;;;;;;17.10;11.32;;;10.40;99.90;;;;;;5093282;28;20042;-77
2024/03/05 06:09:15;;;;;;;16.50;11.30;;;10.50;99.90;;;;;;5105819;28;20134;-75
2024/03/05 06:11:43;;;;;;;18.67;12.68;;;10.70;99.90;;;;;;5090933;28;20122;-76
2024/03/05 06:14:10;;;;;;;73.10;42.15;;;10.80;99.90;;;;;;5086945;28;20051;-76
2024/03/05 06:16:38;;;;;;;26.52;17.45;;;11.00;99.90;;;;;;5085055;28;20035;-79
2024/03/05 06:19:07;;;;;;;64.50;36.85;;;11.30;99.90;;;;;;5109078;28;20372;-77
2024/03/05 06:21:35;;;;;;;20.70;12.57;;;11.40;99.90;;;;;;5103408;28;20119;-78
2024/03/05 06:24:03;;;;;;;18.75;11.18;;;10.80;99.90;;;;;;5101568;28;20036;-75
2024/03/05 06:26:35;;;;;;;22.75;10.80;;;10.50;99.90;;;;;;5087486;28;20036;-78
2024/03/05 06:29:06;;;;;;;20.08;10.60;;;10.60;99.90;;;;;;5085913;28;20101;-76
2024/03/05 06:31:51;;;;;;;16.23;9.70;;;10.50;99.90;;;;;;5109442;28;20030;-76
2024/03/05 06:34:18;;;;;;;13.93;10.95;;;10.40;99.90;;;;;;5110254;28;20399;-74
2024/03/05 06:36:49;;;;;;;14.77;10.20;;;10.40;99.90;;;;;;5094857;28;20035;-76
2024/03/05 06:39:19;;;;;;;13.57;9.45;;;10.30;99.90;;;;;;5116247;28;20077;-78
2024/03/05 06:41:49;;;;;;;14.63;9.93;;;10.30;99.90;;;;;;5096847;28;20047;-78
2024/03/05 06:44:21;;;;;;;16.15;12.40;;;10.30;99.90;;;;;;5109730;28;20048;-79
2024/03/05 06:46:49;;;;;;;15.45;11.48;;;10.50;99.90;;;;;;5083082;28;20342;-81
2024/03/05 06:49:26;;;;;;;13.45;8.90;;;10.60;99.90;;;;;;5110175;28;20044;-78
2024/03/05 06:56:39;;;;;;;16.10;9.00;;;10.60;99.90;;;;;;5104786;28;20475;-74
2024/03/05 06:57:33;;;;;;;;;;;10.60;99.90;;;;;;5108990;28;20040;-75
2024/03/05 07:00:03;;;;;;;10.95;7.07;;;10.60;99.90;;;;;;5092951;28;19969;-80
2024/03/05 07:02:33;;;;;;;;;;;10.70;99.90;;;;;;5098389;28;20097;-79
2024/03/05 07:05:03;;;;;;;11.35;7.60;;;10.70;99.90;;;;;;5110828;28;19930;-78
2024/03/05 07:07:33;;;;;;;;;;;10.70;99.90;;;;;;5089903;28;20063;-79
2024/03/05 07:10:13;;;;;;;11.23;7.10;;;10.90;99.90;;;;;;5100045;28;20374;-77
2024/03/05 07:12:44;;;;;;;11.30;7.45;;;11.00;99.90;;;;;;5101169;28;20046;-77
2024/03/05 07:15:14;;;;;;;9.40;6.90;;;10.90;99.90;;;;;;5113527;28;20032;-75
2024/03/05 07:17:43;;;;;;;10.83;8.17;;;11.30;99.90;;;;;;5114682;28;20032;-82
2024/03/05 07:20:18;;;;;;;10.60;7.90;;;11.70;99.90;;;;;;5102285;28;20276;-80
2024/03/05 07:22:47;;;;;;;14.65;8.23;;;12.00;99.90;;;;;;5075870;28;20036;-79
2024/03/05 07:25:15;;;;;;;12.00;7.72;;;12.20;99.90;;;;;;5101059;28;20047;-80
2024/03/05 07:27:47;;;;;;;11.65;8.07;;;12.30;99.90;;;;;;5122483;27;20382;-81
2024/03/05 07:30:16;;;;;;;12.93;8.13;;;12.50;99.90;;;;;;5100116;28;20104;-81
2024/03/05 07:32:45;;;;;;;13.63;7.38;;;12.60;99.90;;;;;;5098108;28;20382;-84
2024/03/05 07:35:18;;;;;;;9.95;7.28;;;12.70;99.90;;;;;;5091531;28;20092;-76
2024/03/05 07:37:52;;;;;;;14.40;7.45;;;12.80;99.90;;;;;;5101475;28;20662;-80
2024/03/05 07:40:22;;;;;;;10.05;6.38;;;12.90;99.90;;;;;;5096606;28;20047;-81
2024/03/05 07:42:53;;;;;;;9.65;6.80;;;13.00;99.90;;;;;;5114752;28;20044;-82
2024/03/05 07:45:22;;;;;;;12.57;6.50;;;13.00;99.90;;;;;;5115695;28;20039;-75
2024/03/05 07:47:51;;;;;;;11.18;6.20;;;13.10;99.90;;;;;;5078076;28;20051;-80
2024/03/05 07:50:19;;;;;;;9.82;6.40;;;13.20;99.90;;;;;;5099643;28;20075;-81
2024/03/05 07:52:57;;;;;;;9.75;5.90;;;12.70;99.90;;;;;;5122986;28;20813;-82
2024/03/05 07:55:27;;;;;;;11.20;5.32;;;12.90;99.90;;;;;;5099437;28;20059;-81
2024/03/05 07:58:21;;;;;;;11.32;5.90;;;13.10;99.90;;;;;;5093155;28;20048;-81
2024/03/05 08:01:08;;;;;;;8.35;6.15;;;13.30;99.90;;;;;;5083841;28;20040;-84
2024/03/05 08:03:36;;;;;;;8.88;5.72;;;13.20;99.90;;;;;;5119618;28;20055;-82
2024/03/05 08:06:04;;;;;;;10.90;6.70;;;13.20;99.90;;;;;;5113687;28;20039;-78
2024/03/05 08:08:34;;;;;;;8.70;6.05;;;12.90;99.90;;;;;;5096017;28;20041;-82
2024/03/05 08:11:03;;;;;;;;;;;13.00;99.90;;;;;;5106024;28;20483;-81
2024/03/05 08:13:34;;;;;;;13.20;6.57;;;12.60;99.90;;;;;;5102718;28;19923;-79
2024/03/05 08:16:08;;;;;;;9.93;6.82;;;12.50;99.90;;;;;;5103250;28;20099;-78
2024/03/05 08:18:46;;;;;;;9.63;6.95;;;12.50;99.90;;;;;;5104712;28;20036;-75
2024/03/05 08:21:15;;;;;;;;;;;12.70;99.90;;;;;;5115364;28;20040;-80
2024/03/05 08:23:45;;;;;;;11.00;7.60;;;12.60;99.90;;;;;;5103408;28;20432;-82
2024/03/05 08:26:13;;;;;;;13.40;7.47;;;12.80;99.90;;;;;;5103234;28;20137;-79
2024/03/05 08:28:41;;;;;;;11.93;7.35;;;12.80;99.90;;;;;;5114719;28;20130;-79
2024/03/05 08:31:10;;;;;;;14.15;7.78;;;13.00;99.90;;;;;;5111613;28;20046;-80
2024/03/05 08:33:37;;;;;;;14.50;7.93;;;13.00;99.90;;;;;;5114165;28;20040;-77
2024/03/05 08:36:06;;;;;;;13.88;8.82;;;12.40;99.90;;;;;;5107036;28;20051;-80
2024/03/05 08:38:35;;;;;;;15.90;8.52;;;12.60;99.90;;;;;;5082153;28;20051;-83
2024/03/05 08:41:06;;;;;;;15.02;7.50;;;12.50;99.90;;;;;;5091821;28;20118;-78
2024/03/05 08:43:35;;;;;;;14.45;8.07;;;12.40;99.90;;;;;;5113159;28;20390;-75
2024/03/05 08:46:08;;;;;;;14.93;9.52;;;12.50;99.90;;;;;;5098931;28;20050;-80
2024/03/05 08:48:38;;;;;;;12.23;8.27;;;12.90;99.90;;;;;;5082354;28;20193;-73
2024/03/05 08:51:08;;;;;;;13.63;8.68;;;13.00;99.90;;;;;;5091298;28;20043;-77
2024/03/05 08:53:39;;;;;;;15.60;8.60;;;13.30;99.90;;;;;;5088471;28;20131;-74
2024/03/05 08:56:10;;;;;;;13.95;9.13;;;13.50;99.90;;;;;;5102846;28;20040;-77
2024/03/05 08:58:40;;;;;;;14.10;8.27;;;13.20;99.90;;;;;;5099068;28;20032;-76
2024/03/05 09:01:12;;;;;;;12.27;8.05;;;13.10;99.90;;;;;;5069157;28;20040;-79
2024/03/05 09:03:43;;;;;;;14.15;7.90;;;13.10;99.90;;;;;;5094034;28;20038;-77
2024/03/05 09:06:13;;;;;;;16.30;9.90;;;13.10;99.90;;;;;;5078695;28;20043;-73
2024/03/05 09:08:44;;;;;;;12.98;9.10;;;13.90;99.90;;;;;;5083931;28;20056;-78
2024/03/05 09:11:12;;;;;;;12.75;8.40;;;14.10;99.90;;;;;;5102745;28;20120;-77
2024/03/05 09:13:47;;;;;;;17.65;9.00;;;15.10;99.90;;;;;;5093248;28;20399;-74
2024/03/05 09:16:17;;;;;;;15.27;9.00;;;15.30;98.20;;;;;;5090832;28;20041;-75
2024/03/05 09:18:47;;;;;;;14.90;9.07;;;15.70;97.10;;;;;;5074498;28;20112;-79
2024/03/05 09:21:25;;;;;;;15.07;9.20;;;16.20;95.90;;;;;;5094685;28;20411;-80
2024/03/05 09:23:56;;;;;;;13.90;9.32;;;16.10;93.90;;;;;;5090609;28;20035;-76
2024/03/05 09:26:25;;;;;;;15.18;9.63;;;15.40;94.60;;;;;;5082319;28;20036;-79
2024/03/05 09:28:56;;;;;;;17.05;10.55;;;15.40;94.30;;;;;;5078156;28;20055;-76
2024/03/05 09:31:37;;;;;;;17.23;10.43;;;14.40;94.10;;;;;;5085480;28;20036;-79
2024/03/05 09:34:16;;;;;;;15.57;11.05;;;13.90;95.60;;;;;;5110620;28;20044;-80
2024/03/05 09:36:46;;;;;;;18.65;10.45;;;14.00;95.20;;;;;;5081644;28;20044;-77
2024/03/05 09:39:16;;;;;;;15.52;10.55;;;13.80;94.40;;;;;;5107901;28;20047;-80
2024/03/05 09:41:49;;;;;;;15.35;10.45;;;13.60;94.40;;;;;;5082809;28;20040;-75
2024/03/05 09:44:25;;;;;;;14.40;10.65;;;13.90;94.60;;;;;;5082722;28;20511;-78
2024/03/05 09:47:09;;;;;;;16.85;10.75;;;14.10;94.00;;;;;;5087337;28;20436;-80
2024/03/05 09:49:50;;;;;;;19.57;11.07;;;13.90;93.50;;;;;;5070886;28;20032;-80
2024/03/05 09:52:40;;;;;;;;;;;14.00;93.80;;;;;;5082927;28;20039;-81
2024/03/05 09:55:19;;;;;;;;;;;14.00;94.20;;;;;;5076012;28;19978;-78
2024/03/05 09:58:22;;;;;;;13.82;10.50;;;14.50;93.50;;;;;;5112953;28;19927;-80
2024/03/05 10:01:25;;;;;;;17.52;9.25;;;14.90;92.90;;;;;;5091405;28;20043;-77
2024/03/05 10:04:00;;;;;;;14.00;8.75;;;15.00;91.10;;;;;;5079165;28;20039;-76
2024/03/05 10:06:31;;;;;;;14.85;9.32;;;15.30;90.80;;;;;;5111507;28;20055;-77
2024/03/05 10:09:08;;;;;;;15.88;9.40;;;15.70;89.80;;;;;;5090417;28;20414;-76
2024/03/05 10:11:36;;;;;;;14.05;9.02;;;15.90;88.20;;;;;;5112886;28;20036;-78
2024/03/05 10:14:05;;;;;;;15.55;9.82;;;16.40;86.60;;;;;;5097608;28;20123;-77
2024/03/05 10:16:38;;;;;;;12.65;9.10;;;15.70;88.20;;;;;;5094739;28;20054;-74
2024/03/05 10:19:20;;;;;;;18.67;9.80;;;16.20;87.80;;;;;;5083001;28;20050;-76
2024/03/05 10:22:14;;;;;;;12.18;8.82;;;17.00;83.60;;;;;;5116156;27;20114;-77
2024/03/05 10:24:53;;;;;;;13.50;10.20;;;16.70;84.50;;;;;;5109288;28;20046;-79
2024/03/05 10:27:28;;;;;;;15.93;9.20;;;16.00;87.60;;;;;;5122044;28;20051;-76
2024/03/05 10:29:58;;;;;;;14.82;8.23;;;16.20;85.10;;;;;;5084472;28;20043;-79
2024/03/05 10:32:27;;;;;;;16.15;9.38;;;16.20;84.90;;;;;;5100569;28;20035;-77
2024/03/05 10:34:55;;;;;;;12.75;8.38;;;15.80;86.10;;;;;;5115741;28;20044;-80
2024/03/05 10:37:23;;;;;;;13.93;8.80;;;16.10;84.00;;;;;;5097988;28;20039;-78
2024/03/05 10:39:53;;;;;;;14.23;8.75;;;16.20;83.80;;;;;;5101776;28;20388;-76
2024/03/05 10:42:25;;;;;;;13.13;9.25;;;16.00;83.50;;;;;;5105841;28;20035;-77
2024/03/05 10:44:55;;;;;;;12.88;8.98;;;17.40;81.20;;;;;;5102539;28;20047;-78
2024/03/05 10:47:28;;;;;;;17.88;8.65;;;16.80;80.60;;;;;;5098026;28;20058;-78
2024/03/05 10:49:58;;;;;;;11.55;7.82;;;16.50;81.40;;;;;;5106052;28;20043;-79
2024/03/05 10:52:30;;;;;;;12.20;7.80;;;15.60;82.70;;;;;;5108280;28;20474;-75
2024/03/05 10:55:01;;;;;;;19.80;9.60;;;15.30;84.70;;;;;;5112397;28;20478;-79
2024/03/05 10:58:08;;;;;;;13.60;8.45;;;15.70;83.40;;;;;;5099315;27;20056;-78
2024/03/05 11:00:35;;;;;;;13.43;8.82;;;15.20;84.80;;;;;;5114463;28;20039;-77
2024/03/05 11:03:09;;;;;;;12.77;8.85;;;15.30;84.80;;;;;;5099767;28;20108;-78
2024/03/05 11:05:49;;;;;;;14.23;9.48;;;15.50;84.40;;;;;;5121198;28;20031;-78
2024/03/05 11:08:25;;;;;;;13.32;9.30;;;15.90;82.70;;;;;;5116586;28;20039;-76
2024/03/05 11:11:16;;;;;;;12.52;8.75;;;16.10;84.50;;;;;;5120315;27;20747;-81
2024/03/05 11:13:48;;;;;;;15.60;8.63;;;17.40;81.30;;;;;;5117183;28;20065;-79
2024/03/05 11:16:16;;;;;;;12.85;8.88;;;16.90;79.80;;;;;;5094444;28;20044;-78
2024/03/05 11:18:58;;;;;;;21.80;9.63;;;17.20;78.70;;;;;;5109985;28;20032;-79
2024/03/05 11:21:43;;;;;;;15.00;9.18;;;16.70;79.00;;;;;;5079447;28;20093;-82
2024/03/05 11:24:18;;;;;;;15.57;9.45;;;16.50;81.80;;;;;;5098781;28;20037;-81
2024/03/05 11:26:57;;;;;;;15.75;8.98;;;17.00;79.40;;;;;;5098809;28;20114;-78
2024/03/05 11:29:31;;;;;;;13.43;8.10;;;16.90;78.60;;;;;;5081160;28;20031;-80
2024/03/05 11:31:58;;;;;;;12.77;7.75;;;17.30;77.70;;;;;;5086382;28;20527;-76
2024/03/05 11:34:28;;;;;;;15.05;7.80;;;17.60;76.80;;;;;;5097753;28;20394;-78
2024/03/05 11:37:06;;;;;;;11.18;7.18;;;17.40;76.90;;;;;;5113108;28;20471;-78
2024/03/05 11:39:43;;;;;;;12.48;7.72;;;17.50;74.70;;;;;;5110321;28;20614;-78
2024/03/05 11:42:18;;;;;;;;;;;16.90;75.80;;;;;;5080144;28;20052;-77
2024/03/05 11:44:51;;;;;;;11.20;7.25;;;16.80;77.30;;;;;;5110738;28;19947;-78
2024/03/05 11:47:24;;;;;;;11.77;7.10;;;16.80;75.50;;;;;;5114190;28;20043;-78
2024/03/05 11:49:52;;;;;;;13.15;8.13;;;17.00;75.40;;;;;;5111648;28;20036;-78
2024/03/05 11:52:20;;;;;;;12.43;7.95;;;17.70;73.80;;;;;;5094100;28;20046;-82
2024/03/05 11:55:05;;;;;;;12.27;7.15;;;17.60;73.90;;;;;;5111630;28;20036;-79
2024/03/05 11:57:33;;;;;;;13.88;7.68;;;16.70;74.80;;;;;;5107511;28;20127;-78
2024/03/05 12:00:00;;;;;;;10.10;7.35;;;16.60;76.20;;;;;;5109829;28;20040;-78
2024/03/05 12:02:28;;;;;;;13.07;7.88;;;16.80;76.40;;;;;;5112061;28;20035;-77
2024/03/05 12:05:03;;;;;;;11.73;8.13;;;17.40;74.30;;;;;;5115819;27;20039;-77
2024/03/05 12:07:33;;;;;;;11.50;7.10;;;17.20;73.90;;;;;;5106298;28;20096;-76
2024/03/05 12:10:00;;;;;;;12.52;6.80;;;16.90;74.40;;;;;;5087430;28;20048;-77
2024/03/05 12:12:28;;;;;;;10.82;6.85;;;16.60;74.40;;;;;;5087898;28;20545;-77
2024/03/05 12:15:04;;;;;;;10.77;6.80;;;16.30;75.10;;;;;;5095663;28;20032;-76
2024/03/05 12:17:33;;;;;;;10.63;7.50;;;16.30;74.60;;;;;;5089078;28;20546;-78
2024/03/05 12:20:07;;;;;;;12.18;7.43;;;16.70;74.70;;;;;;5089628;28;20116;-79
2024/03/05 12:22:49;;;;;;;12.30;7.05;;;16.60;74.10;;;;;;5105868;28;20044;-81
2024/03/05 12:25:25;;;;;;;12.43;7.28;;;16.40;74.20;;;;;;5065815;28;20047;-78
2024/03/05 12:27:53;;;;;;;11.80;7.60;;;16.80;73.80;;;;;;5110374;28;20043;-77
2024/03/05 12:30:21;;;;;;;12.25;7.75;;;17.10;73.40;;;;;;5110256;28;20126;-77
2024/03/05 12:32:52;;;;;;;;;;;16.90;72.70;;;;;;5099299;27;20036;-76
2024/03/05 12:35:25;;;;;;;11.98;6.65;;;17.00;72.30;;;;;;5116757;27;19919;-78
2024/03/05 12:38:02;;;;;;;10.20;7.32;;;17.00;72.60;;;;;;5104665;28;20043;-78
2024/03/05 12:40:33;;;;;;;11.30;6.30;;;17.10;72.60;;;;;;5115352;28;20110;-79
2024/03/05 12:43:10;;;;;;;9.98;5.93;;;17.50;70.70;;;;;;5103652;28;20055;-78
2024/03/05 12:45:38;;;;;;;13.88;6.15;;;17.90;70.00;;;;;;5086679;28;20038;-77
2024/03/05 12:48:08;;;;;;;14.63;5.85;;;17.80;71.10;;;;;;5113958;28;20047;-78
2024/03/05 12:50:39;;;;;;;13.63;7.05;;;18.20;68.50;;;;;;5111036;28;20042;-79
2024/03/05 12:53:08;;;;;;;9.80;6.25;;;18.00;68.20;;;;;;5112890;28;20062;-79
2024/03/05 12:55:38;;;;;;;10.48;6.70;;;17.60;68.30;;;;;;5078114;28;20447;-78
2024/03/05 12:58:11;;;;;;;8.70;5.93;;;17.20;70.20;;;;;;5118406;27;20085;-79
2024/03/05 13:00:40;;;;;;;12.68;5.90;;;17.10;70.70;;;;;;5112309;28;20073;-81